sensor_id;sensor_type;location;lat;lon;timestamp;P1;durP1;ratioP1;P2;durP2;ratioP2
61915;SDS011;47868;51.326;6.550;2023-03-11T00:01:01;9.23;;;3.03;;
61915;SDS011;47868;51.326;6.550;2023-03-11T00:03:27;6.53;;;2.80;;
61915;SDS011;47868;51.326;6.550;2023-03-11T00:05:53;9.30;;;2.97;;
61915;SDS011;47868;51.326;6.550;2023-03-11T00:08:23;6.93;;;3.07;;
61915;SDS011;47868;51.326;6.550;2023-03-11T00:10:50;7.43;;;2.97;;
61915;SDS011;47868;51.326;6.550;2023-03-11T00:13:16;9.17;;;2.70;;
61915;SDS011;47868;51.326;6.550;2023-03-11T00:15:45;5.83;;;2.53;;
61915;SDS011;47868;51.326;6.550;2023-03-11T00:18:12;6.53;;;2.90;;
61915;SDS011;47868;51.326;6.550;2023-03-11T00:20:39;8.77;;;2.77;;
61915;SDS011;47868;51.326;6.550;2023-03-11T00:23:06;5.43;;;3.00;;
61915;SDS011;47868;51.326;6.550;2023-03-11T00:25:33;11.83;;;3.37;;
61915;SDS011;47868;51.326;6.550;2023-03-11T00:27:59;8.87;;;2.70;;
61915;SDS011;47868;51.326;6.550;2023-03-11T00:30:26;13.07;;;2.80;;
61915;SDS011;47868;51.326;6.550;2023-03-11T00:32:53;9.33;;;2.50;;
61915;SDS011;47868;51.326;6.550;2023-03-11T00:35:20;7.03;;;2.50;;
61915;SDS011;47868;51.326;6.550;2023-03-11T00:37:47;9.20;;;3.17;;
61915;SDS011;47868;51.326;6.550;2023-03-11T00:40:17;6.43;;;2.77;;
61915;SDS011;47868;51.326;6.550;2023-03-11T00:42:43;9.60;;;3.07;;
61915;SDS011;47868;51.326;6.550;2023-03-11T00:45:09;6.27;;;2.60;;
61915;SDS011;47868;51.326;6.550;2023-03-11T00:47:36;11.33;;;2.97;;
61915;SDS011;47868;51.326;6.550;2023-03-11T00:50:02;9.07;;;2.63;;
61915;SDS011;47868;51.326;6.550;2023-03-11T00:52:28;8.73;;;2.70;;
61915;SDS011;47868;51.326;6.550;2023-03-11T00:54:54;4.70;;;2.70;;
61915;SDS011;47868;51.326;6.550;2023-03-11T00:57:20;8.87;;;2.83;;
61915;SDS011;47868;51.326;6.550;2023-03-11T00:59:46;13.93;;;2.90;;
61915;SDS011;47868;51.326;6.550;2023-03-11T01:02:12;5.57;;;2.87;;
61915;SDS011;47868;51.326;6.550;2023-03-11T01:04:38;10.80;;;3.13;;
61915;SDS011;47868;51.326;6.550;2023-03-11T01:07:04;8.73;;;3.20;;
61915;SDS011;47868;51.326;6.550;2023-03-11T01:09:30;8.53;;;2.97;;
61915;SDS011;47868;51.326;6.550;2023-03-11T01:11:56;9.97;;;3.43;;
61915;SDS011;47868;51.326;6.550;2023-03-11T01:14:22;8.13;;;3.13;;
61915;SDS011;47868;51.326;6.550;2023-03-11T01:16:48;10.17;;;2.67;;
61915;SDS011;47868;51.326;6.550;2023-03-11T01:19:14;10.00;;;3.37;;
61915;SDS011;47868;51.326;6.550;2023-03-11T01:21:40;8.43;;;3.03;;
61915;SDS011;47868;51.326;6.550;2023-03-11T01:24:07;14.63;;;2.93;;
61915;SDS011;47868;51.326;6.550;2023-03-11T01:26:33;6.10;;;3.00;;
61915;SDS011;47868;51.326;6.550;2023-03-11T01:28:59;7.87;;;3.13;;
61915;SDS011;47868;51.326;6.550;2023-03-11T01:31:25;10.03;;;3.37;;
61915;SDS011;47868;51.326;6.550;2023-03-11T01:33:51;6.83;;;3.20;;
61915;SDS011;47868;51.326;6.550;2023-03-11T01:36:17;11.27;;;3.40;;
61915;SDS011;47868;51.326;6.550;2023-03-11T01:38:43;6.67;;;2.83;;
61915;SDS011;47868;51.326;6.550;2023-03-11T01:41:10;14.83;;;3.60;;
61915;SDS011;47868;51.326;6.550;2023-03-11T01:43:38;7.93;;;3.63;;
61915;SDS011;47868;51.326;6.550;2023-03-11T01:48:53;14.23;;;3.37;;
61915;SDS011;47868;51.326;6.550;2023-03-11T01:51:29;8.60;;;2.73;;
61915;SDS011;47868;51.326;6.550;2023-03-11T01:53:58;11.67;;;3.40;;
61915;SDS011;47868;51.326;6.550;2023-03-11T01:56:25;11.13;;;3.57;;
61915;SDS011;47868;51.326;6.550;2023-03-11T01:58:52;8.00;;;2.90;;
61915;SDS011;47868;51.326;6.550;2023-03-11T02:01:19;8.97;;;3.00;;
61915;SDS011;47868;51.326;6.550;2023-03-11T02:03:45;9.07;;;3.50;;
61915;SDS011;47868;51.326;6.550;2023-03-11T02:06:13;9.13;;;3.33;;
61915;SDS011;47868;51.326;6.550;2023-03-11T02:08:40;11.53;;;3.07;;
61915;SDS011;47868;51.326;6.550;2023-03-11T02:11:07;5.87;;;2.97;;
61915;SDS011;47868;51.326;6.550;2023-03-11T02:13:34;6.57;;;3.37;;
61915;SDS011;47868;51.326;6.550;2023-03-11T02:16:01;5.60;;;2.80;;
61915;SDS011;47868;51.326;6.550;2023-03-11T02:18:27;7.67;;;3.17;;
61915;SDS011;47868;51.326;6.550;2023-03-11T02:23:24;8.77;;;3.63;;
61915;SDS011;47868;51.326;6.550;2023-03-11T02:25:56;8.30;;;3.13;;
61915;SDS011;47868;51.326;6.550;2023-03-11T02:28:24;14.33;;;4.00;;
61915;SDS011;47868;51.326;6.550;2023-03-11T02:30:51;10.17;;;3.23;;
61915;SDS011;47868;51.326;6.550;2023-03-11T02:33:17;6.07;;;3.03;;
61915;SDS011;47868;51.326;6.550;2023-03-11T02:35:44;7.80;;;2.63;;
61915;SDS011;47868;51.326;6.550;2023-03-11T02:38:09;9.73;;;2.60;;
61915;SDS011;47868;51.326;6.550;2023-03-11T02:40:40;7.30;;;3.03;;
61915;SDS011;47868;51.326;6.550;2023-03-11T02:43:09;11.93;;;3.13;;
61915;SDS011;47868;51.326;6.550;2023-03-11T02:45:36;10.87;;;4.23;;
61915;SDS011;47868;51.326;6.550;2023-03-11T02:48:04;7.20;;;3.30;;
61915;SDS011;47868;51.326;6.550;2023-03-11T02:50:30;9.40;;;2.83;;
61915;SDS011;47868;51.326;6.550;2023-03-11T02:52:56;10.07;;;3.00;;
61915;SDS011;47868;51.326;6.550;2023-03-11T02:55:22;8.33;;;3.60;;
61915;SDS011;47868;51.326;6.550;2023-03-11T02:57:48;11.23;;;3.43;;
61915;SDS011;47868;51.326;6.550;2023-03-11T03:00:15;7.63;;;2.97;;
61915;SDS011;47868;51.326;6.550;2023-03-11T03:02:41;6.07;;;2.93;;
61915;SDS011;47868;51.326;6.550;2023-03-11T03:05:08;10.00;;;2.67;;
61915;SDS011;47868;51.326;6.550;2023-03-11T03:07:35;9.83;;;3.13;;
61915;SDS011;47868;51.326;6.550;2023-03-11T03:10:02;6.73;;;2.47;;
61915;SDS011;47868;51.326;6.550;2023-03-11T03:12:28;9.60;;;3.10;;
61915;SDS011;47868;51.326;6.550;2023-03-11T03:14:54;4.90;;;3.10;;
61915;SDS011;47868;51.326;6.550;2023-03-11T03:17:22;14.13;;;4.20;;
61915;SDS011;47868;51.326;6.550;2023-03-11T03:19:48;14.37;;;3.30;;
61915;SDS011;47868;51.326;6.550;2023-03-11T03:22:14;9.73;;;3.10;;
61915;SDS011;47868;51.326;6.550;2023-03-11T03:24:40;14.90;;;3.27;;
61915;SDS011;47868;51.326;6.550;2023-03-11T03:27:06;9.97;;;3.30;;
61915;SDS011;47868;51.326;6.550;2023-03-11T03:29:31;9.60;;;3.40;;
61915;SDS011;47868;51.326;6.550;2023-03-11T03:31:57;11.33;;;4.17;;
61915;SDS011;47868;51.326;6.550;2023-03-11T03:34:23;9.57;;;4.13;;
61915;SDS011;47868;51.326;6.550;2023-03-11T03:36:49;10.30;;;4.40;;
61915;SDS011;47868;51.326;6.550;2023-03-11T03:39:15;8.43;;;4.27;;
61915;SDS011;47868;51.326;6.550;2023-03-11T03:41:43;7.90;;;4.93;;
61915;SDS011;47868;51.326;6.550;2023-03-11T03:44:09;10.30;;;4.63;;
61915;SDS011;47868;51.326;6.550;2023-03-11T03:46:35;8.50;;;4.37;;
61915;SDS011;47868;51.326;6.550;2023-03-11T03:49:02;12.50;;;3.80;;
61915;SDS011;47868;51.326;6.550;2023-03-11T03:51:28;11.33;;;3.97;;
61915;SDS011;47868;51.326;6.550;2023-03-11T03:53:54;11.83;;;3.40;;
61915;SDS011;47868;51.326;6.550;2023-03-11T03:56:20;11.50;;;3.00;;
61915;SDS011;47868;51.326;6.550;2023-03-11T03:58:46;10.10;;;3.87;;
61915;SDS011;47868;51.326;6.550;2023-03-11T04:01:12;6.47;;;2.97;;
61915;SDS011;47868;51.326;6.550;2023-03-11T04:03:38;7.37;;;3.20;;
61915;SDS011;47868;51.326;6.550;2023-03-11T04:06:24;5.77;;;2.90;;
61915;SDS011;47868;51.326;6.550;2023-03-11T04:08:50;10.90;;;3.50;;
61915;SDS011;47868;51.326;6.550;2023-03-11T04:11:16;10.73;;;2.97;;
61915;SDS011;47868;51.326;6.550;2023-03-11T04:13:42;7.60;;;3.60;;
61915;SDS011;47868;51.326;6.550;2023-03-11T04:16:09;6.40;;;2.90;;
61915;SDS011;47868;51.326;6.550;2023-03-11T04:18:36;12.00;;;3.77;;
61915;SDS011;47868;51.326;6.550;2023-03-11T04:21:05;9.10;;;3.30;;
61915;SDS011;47868;51.326;6.550;2023-03-11T04:23:31;9.47;;;3.43;;
61915;SDS011;47868;51.326;6.550;2023-03-11T04:25:57;5.13;;;2.83;;
61915;SDS011;47868;51.326;6.550;2023-03-11T04:28:23;7.93;;;2.70;;
61915;SDS011;47868;51.326;6.550;2023-03-11T04:30:49;8.50;;;3.10;;
61915;SDS011;47868;51.326;6.550;2023-03-11T04:33:15;7.20;;;2.90;;
61915;SDS011;47868;51.326;6.550;2023-03-11T04:35:41;12.07;;;3.07;;
61915;SDS011;47868;51.326;6.550;2023-03-11T04:38:07;8.90;;;2.80;;
61915;SDS011;47868;51.326;6.550;2023-03-11T04:40:33;10.00;;;2.47;;
61915;SDS011;47868;51.326;6.550;2023-03-11T04:42:59;5.40;;;2.77;;
61915;SDS011;47868;51.326;6.550;2023-03-11T04:45:25;5.47;;;3.00;;
61915;SDS011;47868;51.326;6.550;2023-03-11T04:47:51;9.07;;;3.13;;
61915;SDS011;47868;51.326;6.550;2023-03-11T04:50:17;6.83;;;2.37;;
61915;SDS011;47868;51.326;6.550;2023-03-11T04:52:44;4.53;;;2.90;;
61915;SDS011;47868;51.326;6.550;2023-03-11T04:55:10;10.93;;;3.70;;
61915;SDS011;47868;51.326;6.550;2023-03-11T04:57:37;8.57;;;3.23;;
61915;SDS011;47868;51.326;6.550;2023-03-11T05:00:03;8.87;;;3.20;;
61915;SDS011;47868;51.326;6.550;2023-03-11T05:02:34;10.17;;;3.27;;
61915;SDS011;47868;51.326;6.550;2023-03-11T05:05:00;5.97;;;2.80;;
61915;SDS011;47868;51.326;6.550;2023-03-11T05:07:26;7.33;;;2.73;;
61915;SDS011;47868;51.326;6.550;2023-03-11T05:09:52;7.70;;;3.30;;
61915;SDS011;47868;51.326;6.550;2023-03-11T05:12:18;9.57;;;3.00;;
61915;SDS011;47868;51.326;6.550;2023-03-11T05:14:44;10.17;;;3.10;;
61915;SDS011;47868;51.326;6.550;2023-03-11T05:17:10;7.83;;;2.90;;
61915;SDS011;47868;51.326;6.550;2023-03-11T05:19:37;4.00;;;2.87;;
61915;SDS011;47868;51.326;6.550;2023-03-11T05:22:03;4.67;;;2.57;;
61915;SDS011;47868;51.326;6.550;2023-03-11T05:24:30;9.67;;;3.27;;
61915;SDS011;47868;51.326;6.550;2023-03-11T05:26:56;7.13;;;2.83;;
61915;SDS011;47868;51.326;6.550;2023-03-11T05:29:22;7.90;;;2.90;;
61915;SDS011;47868;51.326;6.550;2023-03-11T05:31:48;8.40;;;2.90;;
61915;SDS011;47868;51.326;6.550;2023-03-11T05:34:14;8.63;;;2.67;;
61915;SDS011;47868;51.326;6.550;2023-03-11T05:36:40;7.97;;;3.17;;
61915;SDS011;47868;51.326;6.550;2023-03-11T05:39:06;5.13;;;2.60;;
61915;SDS011;47868;51.326;6.550;2023-03-11T05:41:32;9.00;;;2.93;;
61915;SDS011;47868;51.326;6.550;2023-03-11T05:43:58;5.43;;;3.07;;
61915;SDS011;47868;51.326;6.550;2023-03-11T05:46:24;4.73;;;3.30;;
61915;SDS011;47868;51.326;6.550;2023-03-11T05:48:50;4.37;;;2.67;;
61915;SDS011;47868;51.326;6.550;2023-03-11T05:51:16;7.60;;;2.73;;
61915;SDS011;47868;51.326;6.550;2023-03-11T05:53:46;4.97;;;2.47;;
61915;SDS011;47868;51.326;6.550;2023-03-11T05:56:13;5.87;;;2.70;;
61915;SDS011;47868;51.326;6.550;2023-03-11T05:58:39;6.63;;;3.13;;
61915;SDS011;47868;51.326;6.550;2023-03-11T06:01:06;7.07;;;3.00;;
61915;SDS011;47868;51.326;6.550;2023-03-11T06:03:33;9.63;;;2.60;;
61915;SDS011;47868;51.326;6.550;2023-03-11T06:05:59;6.60;;;2.63;;
61915;SDS011;47868;51.326;6.550;2023-03-11T06:08:25;6.60;;;2.83;;
61915;SDS011;47868;51.326;6.550;2023-03-11T06:10:51;7.27;;;2.97;;
61915;SDS011;47868;51.326;6.550;2023-03-11T06:13:17;11.70;;;3.53;;
61915;SDS011;47868;51.326;6.550;2023-03-11T06:15:43;5.67;;;2.80;;
61915;SDS011;47868;51.326;6.550;2023-03-11T06:18:09;5.97;;;3.63;;
61915;SDS011;47868;51.326;6.550;2023-03-11T06:20:35;6.60;;;3.13;;
61915;SDS011;47868;51.326;6.550;2023-03-11T06:23:01;6.80;;;2.93;;
61915;SDS011;47868;51.326;6.550;2023-03-11T06:25:27;5.27;;;2.60;;
61915;SDS011;47868;51.326;6.550;2023-03-11T06:27:53;5.97;;;2.93;;
61915;SDS011;47868;51.326;6.550;2023-03-11T06:30:19;11.43;;;2.97;;
61915;SDS011;47868;51.326;6.550;2023-03-11T06:32:45;10.20;;;3.30;;
61915;SDS011;47868;51.326;6.550;2023-03-11T06:35:12;8.27;;;2.60;;
61915;SDS011;47868;51.326;6.550;2023-03-11T06:37:38;8.50;;;2.60;;
61915;SDS011;47868;51.326;6.550;2023-03-11T06:40:05;8.53;;;2.70;;
61915;SDS011;47868;51.326;6.550;2023-03-11T06:42:32;5.57;;;2.93;;
61915;SDS011;47868;51.326;6.550;2023-03-11T06:44:58;8.13;;;3.03;;
61915;SDS011;47868;51.326;6.550;2023-03-11T06:47:24;10.13;;;3.30;;
61915;SDS011;47868;51.326;6.550;2023-03-11T06:49:50;6.77;;;2.73;;
61915;SDS011;47868;51.326;6.550;2023-03-11T06:52:17;5.30;;;2.73;;
61915;SDS011;47868;51.326;6.550;2023-03-11T06:54:43;7.00;;;3.80;;
61915;SDS011;47868;51.326;6.550;2023-03-11T06:57:09;6.60;;;3.13;;
61915;SDS011;47868;51.326;6.550;2023-03-11T06:59:35;8.53;;;2.97;;
61915;SDS011;47868;51.326;6.550;2023-03-11T07:02:02;8.17;;;2.83;;
61915;SDS011;47868;51.326;6.550;2023-03-11T07:04:28;5.60;;;2.90;;
61915;SDS011;47868;51.326;6.550;2023-03-11T07:06:55;9.70;;;3.07;;
61915;SDS011;47868;51.326;6.550;2023-03-11T07:09:21;8.50;;;2.87;;
61915;SDS011;47868;51.326;6.550;2023-03-11T07:11:49;7.10;;;3.37;;
61915;SDS011;47868;51.326;6.550;2023-03-11T07:14:15;7.57;;;2.93;;
61915;SDS011;47868;51.326;6.550;2023-03-11T07:16:41;10.30;;;3.03;;
61915;SDS011;47868;51.326;6.550;2023-03-11T07:19:07;11.70;;;3.00;;
61915;SDS011;47868;51.326;6.550;2023-03-11T07:21:33;8.03;;;2.97;;
61915;SDS011;47868;51.326;6.550;2023-03-11T07:24:00;10.67;;;3.53;;
61915;SDS011;47868;51.326;6.550;2023-03-11T07:26:27;7.33;;;3.60;;
61915;SDS011;47868;51.326;6.550;2023-03-11T07:28:54;9.73;;;3.60;;
61915;SDS011;47868;51.326;6.550;2023-03-11T07:31:21;8.77;;;3.43;;
61915;SDS011;47868;51.326;6.550;2023-03-11T07:33:47;8.93;;;3.40;;
61915;SDS011;47868;51.326;6.550;2023-03-11T07:36:15;11.90;;;3.67;;
61915;SDS011;47868;51.326;6.550;2023-03-11T07:38:42;9.43;;;3.30;;
61915;SDS011;47868;51.326;6.550;2023-03-11T07:41:08;5.00;;;3.07;;
61915;SDS011;47868;51.326;6.550;2023-03-11T07:43:38;9.50;;;3.13;;
61915;SDS011;47868;51.326;6.550;2023-03-11T07:46:09;8.43;;;3.07;;
61915;SDS011;47868;51.326;6.550;2023-03-11T07:48:35;17.13;;;2.97;;
61915;SDS011;47868;51.326;6.550;2023-03-11T07:51:12;8.00;;;3.27;;
61915;SDS011;47868;51.326;6.550;2023-03-11T07:53:38;4.60;;;3.10;;
61915;SDS011;47868;51.326;6.550;2023-03-11T07:56:05;8.47;;;3.57;;
61915;SDS011;47868;51.326;6.550;2023-03-11T07:58:31;9.07;;;3.80;;
61915;SDS011;47868;51.326;6.550;2023-03-11T08:01:01;5.93;;;2.90;;
61915;SDS011;47868;51.326;6.550;2023-03-11T08:03:28;8.20;;;2.87;;
61915;SDS011;47868;51.326;6.550;2023-03-11T08:05:54;8.43;;;3.17;;
61915;SDS011;47868;51.326;6.550;2023-03-11T08:08:20;7.30;;;3.07;;
61915;SDS011;47868;51.326;6.550;2023-03-11T08:10:46;6.63;;;2.83;;
61915;SDS011;47868;51.326;6.550;2023-03-11T08:13:12;7.97;;;3.27;;
61915;SDS011;47868;51.326;6.550;2023-03-11T08:15:38;5.30;;;2.83;;
61915;SDS011;47868;51.326;6.550;2023-03-11T08:18:04;10.00;;;3.47;;
61915;SDS011;47868;51.326;6.550;2023-03-11T08:20:30;8.53;;;2.70;;
61915;SDS011;47868;51.326;6.550;2023-03-11T08:22:56;7.93;;;2.60;;
61915;SDS011;47868;51.326;6.550;2023-03-11T08:25:22;9.27;;;2.70;;
61915;SDS011;47868;51.326;6.550;2023-03-11T08:27:48;6.00;;;2.87;;
61915;SDS011;47868;51.326;6.550;2023-03-11T08:30:14;9.40;;;2.53;;
61915;SDS011;47868;51.326;6.550;2023-03-11T08:32:40;4.37;;;2.40;;
61915;SDS011;47868;51.326;6.550;2023-03-11T08:35:06;5.78;;;2.70;;
61915;SDS011;47868;51.326;6.550;2023-03-11T08:37:32;7.90;;;2.73;;
61915;SDS011;47868;51.326;6.550;2023-03-11T08:39:58;8.70;;;3.03;;
61915;SDS011;47868;51.326;6.550;2023-03-11T08:42:24;2.67;;;2.20;;
61915;SDS011;47868;51.326;6.550;2023-03-11T08:44:50;9.07;;;2.80;;
61915;SDS011;47868;51.326;6.550;2023-03-11T08:47:16;7.85;;;2.65;;
61915;SDS011;47868;51.326;6.550;2023-03-11T08:49:42;9.60;;;2.42;;
61915;SDS011;47868;51.326;6.550;2023-03-11T08:52:08;7.82;;;2.47;;
61915;SDS011;47868;51.326;6.550;2023-03-11T08:54:34;4.25;;;2.22;;
61915;SDS011;47868;51.326;6.550;2023-03-11T08:56:59;7.75;;;2.65;;
61915;SDS011;47868;51.326;6.550;2023-03-11T08:59:30;11.88;;;2.25;;
61915;SDS011;47868;51.326;6.550;2023-03-11T09:01:56;6.55;;;2.53;;
61915;SDS011;47868;51.326;6.550;2023-03-11T09:04:22;6.82;;;2.03;;
61915;SDS011;47868;51.326;6.550;2023-03-11T09:06:48;9.40;;;2.70;;
61915;SDS011;47868;51.326;6.550;2023-03-11T09:09:14;15.50;;;3.13;;
61915;SDS011;47868;51.326;6.550;2023-03-11T09:11:41;6.05;;;2.65;;
61915;SDS011;47868;51.326;6.550;2023-03-11T09:14:07;10.00;;;2.60;;
61915;SDS011;47868;51.326;6.550;2023-03-11T09:16:33;3.72;;;2.28;;
61915;SDS011;47868;51.326;6.550;2023-03-11T09:18:59;5.25;;;2.40;;
61915;SDS011;47868;51.326;6.550;2023-03-11T09:21:30;3.90;;;2.20;;
61915;SDS011;47868;51.326;6.550;2023-03-11T09:23:56;8.07;;;2.55;;
61915;SDS011;47868;51.326;6.550;2023-03-11T09:26:22;5.57;;;2.60;;
61915;SDS011;47868;51.326;6.550;2023-03-11T09:28:48;5.28;;;2.05;;
61915;SDS011;47868;51.326;6.550;2023-03-11T09:31:14;6.72;;;2.35;;
61915;SDS011;47868;51.326;6.550;2023-03-11T09:33:41;4.32;;;2.05;;
61915;SDS011;47868;51.326;6.550;2023-03-11T09:36:08;3.25;;;1.90;;
61915;SDS011;47868;51.326;6.550;2023-03-11T09:38:36;5.75;;;2.22;;
61915;SDS011;47868;51.326;6.550;2023-03-11T09:41:06;4.90;;;1.90;;
61915;SDS011;47868;51.326;6.550;2023-03-11T09:48:58;6.80;;;2.00;;
61915;SDS011;47868;51.326;6.550;2023-03-11T09:51:27;3.65;;;1.55;;
61915;SDS011;47868;51.326;6.550;2023-03-11T09:53:55;6.00;;;1.80;;
61915;SDS011;47868;51.326;6.550;2023-03-11T09:56:23;5.63;;;1.92;;
61915;SDS011;47868;51.326;6.550;2023-03-11T09:58:59;5.50;;;1.77;;
61915;SDS011;47868;51.326;6.550;2023-03-11T10:01:28;6.18;;;2.53;;
61915;SDS011;47868;51.326;6.550;2023-03-11T10:03:56;4.53;;;1.80;;
61915;SDS011;47868;51.326;6.550;2023-03-11T10:06:27;2.63;;;1.55;;
61915;SDS011;47868;51.326;6.550;2023-03-11T10:11:38;3.47;;;1.80;;
61915;SDS011;47868;51.326;6.550;2023-03-11T10:19:47;4.25;;;1.48;;
61915;SDS011;47868;51.326;6.550;2023-03-11T10:25:03;3.65;;;1.40;;
61915;SDS011;47868;51.326;6.550;2023-03-11T10:27:39;2.88;;;1.40;;
61915;SDS011;47868;51.326;6.550;2023-03-11T10:30:16;2.95;;;1.50;;
61915;SDS011;47868;51.326;6.550;2023-03-11T10:32:56;2.38;;;1.13;;
61915;SDS011;47868;51.326;6.550;2023-03-11T10:35:32;6.60;;;1.70;;
61915;SDS011;47868;51.326;6.550;2023-03-11T10:38:09;4.38;;;1.52;;
61915;SDS011;47868;51.326;6.550;2023-03-11T10:40:38;5.72;;;1.70;;
61915;SDS011;47868;51.326;6.550;2023-03-11T10:45:38;1.92;;;1.50;;
61915;SDS011;47868;51.326;6.550;2023-03-11T10:48:12;5.18;;;1.80;;
61915;SDS011;47868;51.326;6.550;2023-03-11T10:50:46;3.20;;;1.40;;
61915;SDS011;47868;51.326;6.550;2023-03-11T10:53:15;3.53;;;1.40;;
61915;SDS011;47868;51.326;6.550;2023-03-11T10:55:48;1.88;;;1.20;;
61915;SDS011;47868;51.326;6.550;2023-03-11T10:58:16;6.57;;;1.60;;
61915;SDS011;47868;51.326;6.550;2023-03-11T11:00:42;3.92;;;1.20;;
61915;SDS011;47868;51.326;6.550;2023-03-11T11:03:14;4.85;;;1.50;;
61915;SDS011;47868;51.326;6.550;2023-03-11T11:05:41;3.22;;;1.42;;
61915;SDS011;47868;51.326;6.550;2023-03-11T11:08:12;5.22;;;1.55;;
61915;SDS011;47868;51.326;6.550;2023-03-11T11:10:52;2.67;;;1.50;;
61915;SDS011;47868;51.326;6.550;2023-03-11T11:13:20;3.97;;;1.48;;
61915;SDS011;47868;51.326;6.550;2023-03-11T11:16:28;2.45;;;1.63;;
61915;SDS011;47868;51.326;6.550;2023-03-11T11:18:36;6.05;;;1.35;;
61915;SDS011;47868;51.326;6.550;2023-03-11T11:21:07;3.33;;;1.65;;
61915;SDS011;47868;51.326;6.550;2023-03-11T11:26:02;6.38;;;1.80;;
61915;SDS011;47868;51.326;6.550;2023-03-11T11:28:29;8.10;;;1.85;;
61915;SDS011;47868;51.326;6.550;2023-03-11T11:30:56;3.95;;;1.70;;
61915;SDS011;47868;51.326;6.550;2023-03-11T11:35:49;5.25;;;1.38;;
61915;SDS011;47868;51.326;6.550;2023-03-11T11:38:16;3.75;;;1.58;;
61915;SDS011;47868;51.326;6.550;2023-03-11T11:40:43;5.75;;;1.73;;
61915;SDS011;47868;51.326;6.550;2023-03-11T11:43:13;3.67;;;1.60;;
61915;SDS011;47868;51.326;6.550;2023-03-11T11:45:45;4.90;;;1.75;;
61915;SDS011;47868;51.326;6.550;2023-03-11T11:48:19;7.40;;;2.08;;
61915;SDS011;47868;51.326;6.550;2023-03-11T11:50:47;4.55;;;1.50;;
61915;SDS011;47868;51.326;6.550;2023-03-11T11:56:11;3.67;;;1.40;;
61915;SDS011;47868;51.326;6.550;2023-03-11T11:58:38;5.40;;;1.60;;
61915;SDS011;47868;51.326;6.550;2023-03-11T12:06:38;4.28;;;1.60;;
61915;SDS011;47868;51.326;6.550;2023-03-11T12:11:35;4.05;;;1.92;;
61915;SDS011;47868;51.326;6.550;2023-03-11T12:16:40;4.63;;;1.77;;
61915;SDS011;47868;51.326;6.550;2023-03-11T12:26:46;6.13;;;1.85;;
61915;SDS011;47868;51.326;6.550;2023-03-11T12:31:44;6.07;;;2.13;;
61915;SDS011;47868;51.326;6.550;2023-03-11T12:34:11;4.88;;;1.58;;
61915;SDS011;47868;51.326;6.550;2023-03-11T12:36:39;4.57;;;1.30;;
61915;SDS011;47868;51.326;6.550;2023-03-11T12:39:18;5.25;;;1.67;;
61915;SDS011;47868;51.326;6.550;2023-03-11T12:41:45;11.25;;;1.60;;
61915;SDS011;47868;51.326;6.550;2023-03-11T12:44:24;10.77;;;1.70;;
61915;SDS011;47868;51.326;6.550;2023-03-11T12:52:02;4.30;;;1.30;;
61915;SDS011;47868;51.326;6.550;2023-03-11T12:56:59;3.15;;;1.25;;
61915;SDS011;47868;51.326;6.550;2023-03-11T13:10:02;2.88;;;1.65;;
61915;SDS011;47868;51.326;6.550;2023-03-11T13:17:41;2.53;;;1.33;;
61915;SDS011;47868;51.326;6.550;2023-03-11T13:20:37;3.63;;;1.80;;
61915;SDS011;47868;51.326;6.550;2023-03-11T13:25:34;9.73;;;1.88;;
61915;SDS011;47868;51.326;6.550;2023-03-11T13:30:37;8.65;;;1.80;;
61915;SDS011;47868;51.326;6.550;2023-03-11T13:33:21;6.38;;;1.75;;
61915;SDS011;47868;51.326;6.550;2023-03-11T13:36:01;3.00;;;1.60;;
61915;SDS011;47868;51.326;6.550;2023-03-11T13:41:13;4.97;;;1.75;;
61915;SDS011;47868;51.326;6.550;2023-03-11T13:43:43;3.63;;;1.52;;
61915;SDS011;47868;51.326;6.550;2023-03-11T13:46:12;2.28;;;1.42;;
61915;SDS011;47868;51.326;6.550;2023-03-11T13:48:40;2.92;;;1.30;;
61915;SDS011;47868;51.326;6.550;2023-03-11T13:51:13;3.45;;;1.20;;
61915;SDS011;47868;51.326;6.550;2023-03-11T13:53:44;3.78;;;1.40;;
61915;SDS011;47868;51.326;6.550;2023-03-11T13:56:15;3.90;;;1.50;;
61915;SDS011;47868;51.326;6.550;2023-03-11T13:58:42;3.55;;;1.50;;
61915;SDS011;47868;51.326;6.550;2023-03-11T14:01:10;3.35;;;1.80;;
61915;SDS011;47868;51.326;6.550;2023-03-11T14:03:39;4.90;;;1.75;;
61915;SDS011;47868;51.326;6.550;2023-03-11T14:06:16;3.03;;;1.70;;
61915;SDS011;47868;51.326;6.550;2023-03-11T14:08:43;5.22;;;1.50;;
61915;SDS011;47868;51.326;6.550;2023-03-11T14:11:17;3.80;;;1.73;;
61915;SDS011;47868;51.326;6.550;2023-03-11T14:13:48;2.83;;;1.27;;
61915;SDS011;47868;51.326;6.550;2023-03-11T14:21:11;3.17;;;1.67;;
61915;SDS011;47868;51.326;6.550;2023-03-11T14:23:41;4.53;;;1.55;;
61915;SDS011;47868;51.326;6.550;2023-03-11T14:26:10;2.70;;;1.60;;
61915;SDS011;47868;51.326;6.550;2023-03-11T14:28:38;6.65;;;1.52;;
61915;SDS011;47868;51.326;6.550;2023-03-11T14:31:05;2.75;;;1.65;;
61915;SDS011;47868;51.326;6.550;2023-03-11T14:33:31;6.57;;;1.65;;
61915;SDS011;47868;51.326;6.550;2023-03-11T14:35:58;3.60;;;1.40;;
61915;SDS011;47868;51.326;6.550;2023-03-11T14:38:26;3.80;;;1.90;;
61915;SDS011;47868;51.326;6.550;2023-03-11T14:40:56;7.63;;;1.90;;
61915;SDS011;47868;51.326;6.550;2023-03-11T14:43:23;5.43;;;1.90;;
61915;SDS011;47868;51.326;6.550;2023-03-11T14:45:50;3.47;;;1.67;;
61915;SDS011;47868;51.326;6.550;2023-03-11T14:48:30;2.60;;;1.70;;
61915;SDS011;47868;51.326;6.550;2023-03-11T14:50:58;3.90;;;1.52;;
61915;SDS011;47868;51.326;6.550;2023-03-11T14:53:32;2.90;;;1.38;;
61915;SDS011;47868;51.326;6.550;2023-03-11T14:56:07;1.65;;;1.35;;
61915;SDS011;47868;51.326;6.550;2023-03-11T14:58:40;5.22;;;1.60;;
61915;SDS011;47868;51.326;6.550;2023-03-11T15:03:37;4.03;;;1.90;;
61915;SDS011;47868;51.326;6.550;2023-03-11T15:06:08;4.00;;;1.77;;
61915;SDS011;47868;51.326;6.550;2023-03-11T15:08:45;2.47;;;1.70;;
61915;SDS011;47868;51.326;6.550;2023-03-11T15:13:41;3.90;;;1.60;;
61915;SDS011;47868;51.326;6.550;2023-03-11T15:18:46;3.03;;;1.50;;
61915;SDS011;47868;51.326;6.550;2023-03-11T15:21:13;5.93;;;1.77;;
61915;SDS011;47868;51.326;6.550;2023-03-11T15:23:46;4.80;;;1.90;;
61915;SDS011;47868;51.326;6.550;2023-03-11T15:26:20;3.30;;;1.85;;
61915;SDS011;47868;51.326;6.550;2023-03-11T15:28:51;2.97;;;1.70;;
61915;SDS011;47868;51.326;6.550;2023-03-11T15:33:47;3.25;;;1.60;;
61915;SDS011;47868;51.326;6.550;2023-03-11T15:36:29;3.85;;;1.70;;
61915;SDS011;47868;51.326;6.550;2023-03-11T15:41:33;3.03;;;1.60;;
61915;SDS011;47868;51.326;6.550;2023-03-11T15:43:59;3.15;;;2.00;;
61915;SDS011;47868;51.326;6.550;2023-03-11T15:46:28;3.97;;;1.83;;
61915;SDS011;47868;51.326;6.550;2023-03-11T15:48:53;4.20;;;1.70;;
61915;SDS011;47868;51.326;6.550;2023-03-11T15:51:20;3.00;;;1.42;;
61915;SDS011;47868;51.326;6.550;2023-03-11T15:53:46;3.90;;;1.60;;
61915;SDS011;47868;51.326;6.550;2023-03-11T15:56:14;3.63;;;1.60;;
61915;SDS011;47868;51.326;6.550;2023-03-11T15:58:44;2.92;;;1.90;;
61915;SDS011;47868;51.326;6.550;2023-03-11T16:01:10;2.47;;;1.83;;
61915;SDS011;47868;51.326;6.550;2023-03-11T16:03:36;2.38;;;1.52;;
61915;SDS011;47868;51.326;6.550;2023-03-11T16:06:02;4.00;;;1.38;;
61915;SDS011;47868;51.326;6.550;2023-03-11T16:08:28;3.33;;;1.50;;
61915;SDS011;47868;51.326;6.550;2023-03-11T16:10:54;1.83;;;1.30;;
61915;SDS011;47868;51.326;6.550;2023-03-11T16:13:22;2.33;;;1.73;;
61915;SDS011;47868;51.326;6.550;2023-03-11T16:15:47;4.07;;;1.50;;
61915;SDS011;47868;51.326;6.550;2023-03-11T16:18:13;2.70;;;1.70;;
61915;SDS011;47868;51.326;6.550;2023-03-11T16:20:40;4.65;;;1.60;;
61915;SDS011;47868;51.326;6.550;2023-03-11T16:23:09;3.40;;;1.67;;
61915;SDS011;47868;51.326;6.550;2023-03-11T16:25:37;2.38;;;1.48;;
61915;SDS011;47868;51.326;6.550;2023-03-11T16:28:04;3.75;;;1.70;;
61915;SDS011;47868;51.326;6.550;2023-03-11T16:30:31;4.97;;;1.92;;